logo
Search for airport 
image banner adimage banner adimage banner ad
image banner ad

MRHO - Hacienda Rio Cuarto

Located in Sarapiqui, Costa Rica

ICAO - MRHO, IATA -

Data provided by Airmate  

General information

Coordinates: N10°33'60" W84°9'0"
Elevation is 197 feet MSL.
 
View others Airports in Heredia

Operational data

Special qualification required
Current time UTC:
Current local time:
Weather at : MROC - Juan Santamaria Intl ( 64 km )
METAR: MROC 301800Z 23005KT 200V280 9999 FEW030 BKN140 26/22 A3005 NOSIG
TAF: MROC 301720Z 3018/3118 25007KT 9999 SCT030 TX28/3018Z TN20/3111Z TEMPO 3020/3023 5000 TSRA SCT015CB TEMPO 3100/3104 5000 RA BR BKN010 TEMPO 3106/3112 06005KT
View NOTAMs / SUP AIP / TFR affecting this airport [VIEW]
Communications frequencies: [VIEW]

Runways:

RWY identifierQFULength (ft)Width (ft)SurfaceLDA (ft)
0200UNK
2000UNK

Airport contact information

Address: Sarapiqui Costa Rica

Satellite view of MRHO